sensor_id;sensor_type;location;lat;lon;timestamp;P1;durP1;ratioP1;P2;durP2;ratioP2
60468;SDS011;46316;47.582;10.238;2022-10-17T00:01:35;2.17;;;1.67;;
60468;SDS011;46316;47.582;10.238;2022-10-17T00:04:01;5.30;;;1.92;;
60468;SDS011;46316;47.582;10.238;2022-10-17T00:06:27;3.85;;;2.08;;
60468;SDS011;46316;47.582;10.238;2022-10-17T00:08:52;7.05;;;1.88;;
60468;SDS011;46316;47.582;10.238;2022-10-17T00:11:19;5.32;;;2.10;;
60468;SDS011;46316;47.582;10.238;2022-10-17T00:13:48;6.15;;;2.22;;
60468;SDS011;46316;47.582;10.238;2022-10-17T00:16:17;2.38;;;1.77;;
60468;SDS011;46316;47.582;10.238;2022-10-17T00:18:54;3.45;;;1.90;;
60468;SDS011;46316;47.582;10.238;2022-10-17T00:21:21;2.53;;;2.00;;
60468;SDS011;46316;47.582;10.238;2022-10-17T00:23:47;3.28;;;1.67;;
60468;SDS011;46316;47.582;10.238;2022-10-17T00:26:12;3.92;;;1.70;;
60468;SDS011;46316;47.582;10.238;2022-10-17T00:28:38;2.05;;;1.85;;
60468;SDS011;46316;47.582;10.238;2022-10-17T00:31:04;5.32;;;2.03;;
60468;SDS011;46316;47.582;10.238;2022-10-17T00:33:32;8.88;;;2.78;;
60468;SDS011;46316;47.582;10.238;2022-10-17T00:36:03;2.95;;;2.10;;
60468;SDS011;46316;47.582;10.238;2022-10-17T00:38:40;2.30;;;1.75;;
60468;SDS011;46316;47.582;10.238;2022-10-17T00:41:07;3.05;;;1.90;;
60468;SDS011;46316;47.582;10.238;2022-10-17T00:46:50;4.10;;;2.17;;
60468;SDS011;46316;47.582;10.238;2022-10-17T00:49:16;4.18;;;1.92;;
60468;SDS011;46316;47.582;10.238;2022-10-17T00:51:42;3.80;;;1.98;;
60468;SDS011;46316;47.582;10.238;2022-10-17T00:54:13;3.00;;;2.10;;
60468;SDS011;46316;47.582;10.238;2022-10-17T00:56:41;4.38;;;2.00;;
60468;SDS011;46316;47.582;10.238;2022-10-17T00:59:08;5.00;;;2.20;;
60468;SDS011;46316;47.582;10.238;2022-10-17T01:01:36;4.15;;;2.22;;
60468;SDS011;46316;47.582;10.238;2022-10-17T01:04:02;4.13;;;2.00;;
60468;SDS011;46316;47.582;10.238;2022-10-17T01:06:27;3.05;;;1.85;;
60468;SDS011;46316;47.582;10.238;2022-10-17T01:08:53;2.22;;;2.03;;
60468;SDS011;46316;47.582;10.238;2022-10-17T01:11:29;2.17;;;1.98;;
60468;SDS011;46316;47.582;10.238;2022-10-17T01:14:12;3.33;;;2.20;;
60468;SDS011;46316;47.582;10.238;2022-10-17T01:16:52;3.33;;;2.13;;
60468;SDS011;46316;47.582;10.238;2022-10-17T01:19:43;2.78;;;2.33;;
60468;SDS011;46316;47.582;10.238;2022-10-17T01:22:43;2.97;;;2.67;;
60468;SDS011;46316;47.582;10.238;2022-10-17T01:25:28;2.40;;;2.15;;
60468;SDS011;46316;47.582;10.238;2022-10-17T01:30:58;3.13;;;2.00;;
60468;SDS011;46316;47.582;10.238;2022-10-17T01:36:26;5.95;;;2.53;;
60468;SDS011;46316;47.582;10.238;2022-10-17T01:42:00;3.03;;;1.98;;
60468;SDS011;46316;47.582;10.238;2022-10-17T01:47:27;6.72;;;2.53;;
60468;SDS011;46316;47.582;10.238;2022-10-17T01:50:07;4.32;;;2.42;;
60468;SDS011;46316;47.582;10.238;2022-10-17T01:52:40;4.07;;;2.03;;
60468;SDS011;46316;47.582;10.238;2022-10-17T01:55:14;5.72;;;2.35;;
60468;SDS011;46316;47.582;10.238;2022-10-17T01:57:49;2.15;;;1.95;;
60468;SDS011;46316;47.582;10.238;2022-10-17T02:00:19;2.28;;;1.90;;
60468;SDS011;46316;47.582;10.238;2022-10-17T02:02:47;3.22;;;2.25;;
60468;SDS011;46316;47.582;10.238;2022-10-17T02:05:17;3.60;;;1.90;;
60468;SDS011;46316;47.582;10.238;2022-10-17T02:07:45;6.93;;;1.83;;
60468;SDS011;46316;47.582;10.238;2022-10-17T02:10:14;4.38;;;2.05;;
60468;SDS011;46316;47.582;10.238;2022-10-17T02:12:49;2.60;;;1.80;;
60468;SDS011;46316;47.582;10.238;2022-10-17T02:26:26;8.27;;;2.30;;
60468;SDS011;46316;47.582;10.238;2022-10-17T02:29:31;5.32;;;2.20;;
60468;SDS011;46316;47.582;10.238;2022-10-17T02:32:07;2.35;;;1.70;;
60468;SDS011;46316;47.582;10.238;2022-10-17T02:34:40;4.07;;;1.90;;
60468;SDS011;46316;47.582;10.238;2022-10-17T02:37:09;2.20;;;1.70;;
60468;SDS011;46316;47.582;10.238;2022-10-17T02:39:39;3.65;;;1.80;;
60468;SDS011;46316;47.582;10.238;2022-10-17T02:42:08;3.97;;;1.60;;
60468;SDS011;46316;47.582;10.238;2022-10-17T02:44:36;2.17;;;1.83;;
60468;SDS011;46316;47.582;10.238;2022-10-17T02:49:51;3.95;;;2.00;;
60468;SDS011;46316;47.582;10.238;2022-10-17T02:52:27;3.30;;;2.10;;
60468;SDS011;46316;47.582;10.238;2022-10-17T02:57:45;2.65;;;1.58;;
60468;SDS011;46316;47.582;10.238;2022-10-17T03:02:41;2.13;;;1.80;;
60468;SDS011;46316;47.582;10.238;2022-10-17T03:05:09;1.73;;;1.60;;
60468;SDS011;46316;47.582;10.238;2022-10-17T03:07:37;3.65;;;1.60;;
60468;SDS011;46316;47.582;10.238;2022-10-17T03:10:03;1.75;;;1.50;;
60468;SDS011;46316;47.582;10.238;2022-10-17T03:12:29;1.90;;;1.67;;
60468;SDS011;46316;47.582;10.238;2022-10-17T03:14:54;3.67;;;1.80;;
60468;SDS011;46316;47.582;10.238;2022-10-17T03:17:20;2.08;;;1.58;;
60468;SDS011;46316;47.582;10.238;2022-10-17T03:19:45;2.05;;;1.80;;
60468;SDS011;46316;47.582;10.238;2022-10-17T03:22:11;1.60;;;1.50;;
60468;SDS011;46316;47.582;10.238;2022-10-17T03:24:37;5.65;;;1.60;;
60468;SDS011;46316;47.582;10.238;2022-10-17T03:27:02;2.13;;;1.77;;
60468;SDS011;46316;47.582;10.238;2022-10-17T03:29:28;3.95;;;1.67;;
60468;SDS011;46316;47.582;10.238;2022-10-17T03:31:54;2.83;;;1.60;;
60468;SDS011;46316;47.582;10.238;2022-10-17T03:34:20;3.78;;;1.70;;
60468;SDS011;46316;47.582;10.238;2022-10-17T03:36:46;1.50;;;1.40;;
60468;SDS011;46316;47.582;10.238;2022-10-17T03:39:12;3.30;;;1.67;;
60468;SDS011;46316;47.582;10.238;2022-10-17T03:41:38;2.42;;;1.42;;
60468;SDS011;46316;47.582;10.238;2022-10-17T03:44:03;5.53;;;1.73;;
60468;SDS011;46316;47.582;10.238;2022-10-17T03:46:29;3.95;;;1.55;;
60468;SDS011;46316;47.582;10.238;2022-10-17T03:48:54;1.98;;;1.70;;
60468;SDS011;46316;47.582;10.238;2022-10-17T03:51:20;5.85;;;2.50;;
60468;SDS011;46316;47.582;10.238;2022-10-17T03:53:46;9.57;;;1.90;;
60468;SDS011;46316;47.582;10.238;2022-10-17T03:56:12;4.47;;;2.25;;
60468;SDS011;46316;47.582;10.238;2022-10-17T03:58:40;3.55;;;1.80;;
60468;SDS011;46316;47.582;10.238;2022-10-17T04:01:07;1.98;;;1.70;;
60468;SDS011;46316;47.582;10.238;2022-10-17T04:03:34;1.90;;;1.50;;
60468;SDS011;46316;47.582;10.238;2022-10-17T04:06:00;3.75;;;1.42;;
60468;SDS011;46316;47.582;10.238;2022-10-17T04:08:26;4.40;;;1.50;;
60468;SDS011;46316;47.582;10.238;2022-10-17T04:10:56;2.22;;;1.73;;
60468;SDS011;46316;47.582;10.238;2022-10-17T04:13:23;2.10;;;1.42;;
60468;SDS011;46316;47.582;10.238;2022-10-17T04:15:58;3.35;;;1.70;;
60468;SDS011;46316;47.582;10.238;2022-10-17T04:20:52;3.92;;;1.95;;
60468;SDS011;46316;47.582;10.238;2022-10-17T04:23:18;2.90;;;1.92;;
60468;SDS011;46316;47.582;10.238;2022-10-17T04:25:44;2.67;;;2.05;;
60468;SDS011;46316;47.582;10.238;2022-10-17T04:28:09;2.47;;;2.03;;
60468;SDS011;46316;47.582;10.238;2022-10-17T04:30:35;3.78;;;2.05;;
60468;SDS011;46316;47.582;10.238;2022-10-17T04:33:01;3.50;;;1.90;;
60468;SDS011;46316;47.582;10.238;2022-10-17T04:35:26;6.22;;;2.40;;
60468;SDS011;46316;47.582;10.238;2022-10-17T04:37:52;3.05;;;1.80;;
60468;SDS011;46316;47.582;10.238;2022-10-17T04:40:17;2.72;;;2.03;;
60468;SDS011;46316;47.582;10.238;2022-10-17T04:42:43;4.68;;;2.33;;
60468;SDS011;46316;47.582;10.238;2022-10-17T04:45:08;4.78;;;2.13;;
60468;SDS011;46316;47.582;10.238;2022-10-17T04:47:34;2.78;;;1.83;;
60468;SDS011;46316;47.582;10.238;2022-10-17T04:50:00;3.70;;;2.13;;
60468;SDS011;46316;47.582;10.238;2022-10-17T04:52:25;4.30;;;1.88;;
60468;SDS011;46316;47.582;10.238;2022-10-17T04:54:51;6.32;;;1.92;;
60468;SDS011;46316;47.582;10.238;2022-10-17T04:57:17;4.30;;;1.73;;
60468;SDS011;46316;47.582;10.238;2022-10-17T04:59:43;3.78;;;1.70;;
60468;SDS011;46316;47.582;10.238;2022-10-17T05:02:09;2.67;;;1.60;;
60468;SDS011;46316;47.582;10.238;2022-10-17T05:04:34;3.67;;;2.67;;
60468;SDS011;46316;47.582;10.238;2022-10-17T05:07:00;2.40;;;1.63;;
60468;SDS011;46316;47.582;10.238;2022-10-17T05:09:26;2.70;;;1.55;;
60468;SDS011;46316;47.582;10.238;2022-10-17T05:11:51;3.08;;;1.80;;
60468;SDS011;46316;47.582;10.238;2022-10-17T05:14:17;1.80;;;1.50;;
60468;SDS011;46316;47.582;10.238;2022-10-17T05:16:43;4.47;;;1.63;;
60468;SDS011;46316;47.582;10.238;2022-10-17T05:19:09;2.53;;;1.88;;
60468;SDS011;46316;47.582;10.238;2022-10-17T05:21:35;5.13;;;1.65;;
60468;SDS011;46316;47.582;10.238;2022-10-17T05:24:03;2.50;;;2.20;;
60468;SDS011;46316;47.582;10.238;2022-10-17T05:26:30;6.68;;;2.65;;
60468;SDS011;46316;47.582;10.238;2022-10-17T05:28:56;5.22;;;1.95;;
60468;SDS011;46316;47.582;10.238;2022-10-17T05:31:22;2.80;;;1.85;;
60468;SDS011;46316;47.582;10.238;2022-10-17T05:33:48;2.35;;;1.95;;
60468;SDS011;46316;47.582;10.238;2022-10-17T05:36:13;5.22;;;2.28;;
60468;SDS011;46316;47.582;10.238;2022-10-17T05:38:39;4.00;;;2.17;;
60468;SDS011;46316;47.582;10.238;2022-10-17T05:41:05;6.57;;;2.40;;
60468;SDS011;46316;47.582;10.238;2022-10-17T05:43:31;2.72;;;2.15;;
60468;SDS011;46316;47.582;10.238;2022-10-17T05:45:57;3.50;;;2.30;;
60468;SDS011;46316;47.582;10.238;2022-10-17T05:48:23;2.70;;;2.03;;
60468;SDS011;46316;47.582;10.238;2022-10-17T05:50:49;6.82;;;2.53;;
60468;SDS011;46316;47.582;10.238;2022-10-17T05:53:22;3.22;;;2.63;;
60468;SDS011;46316;47.582;10.238;2022-10-17T05:55:57;5.15;;;2.40;;
60468;SDS011;46316;47.582;10.238;2022-10-17T05:58:24;3.88;;;2.33;;
60468;SDS011;46316;47.582;10.238;2022-10-17T06:00:50;4.38;;;2.13;;
60468;SDS011;46316;47.582;10.238;2022-10-17T06:03:16;2.97;;;2.47;;
60468;SDS011;46316;47.582;10.238;2022-10-17T06:05:41;4.35;;;2.55;;
60468;SDS011;46316;47.582;10.238;2022-10-17T06:08:07;2.30;;;2.05;;
60468;SDS011;46316;47.582;10.238;2022-10-17T06:10:32;3.88;;;2.38;;
60468;SDS011;46316;47.582;10.238;2022-10-17T06:12:58;4.10;;;2.17;;
60468;SDS011;46316;47.582;10.238;2022-10-17T06:15:24;2.00;;;1.80;;
60468;SDS011;46316;47.582;10.238;2022-10-17T06:17:49;2.38;;;1.65;;
60468;SDS011;46316;47.582;10.238;2022-10-17T06:20:15;4.57;;;1.77;;
60468;SDS011;46316;47.582;10.238;2022-10-17T06:22:40;2.35;;;1.95;;
60468;SDS011;46316;47.582;10.238;2022-10-17T06:25:07;3.45;;;1.92;;
60468;SDS011;46316;47.582;10.238;2022-10-17T06:27:33;2.08;;;1.85;;
60468;SDS011;46316;47.582;10.238;2022-10-17T06:29:58;3.08;;;1.58;;
60468;SDS011;46316;47.582;10.238;2022-10-17T06:32:24;3.53;;;1.90;;
60468;SDS011;46316;47.582;10.238;2022-10-17T06:34:49;3.47;;;1.80;;
60468;SDS011;46316;47.582;10.238;2022-10-17T06:37:15;2.03;;;1.67;;
60468;SDS011;46316;47.582;10.238;2022-10-17T06:39:40;2.97;;;1.92;;
60468;SDS011;46316;47.582;10.238;2022-10-17T06:42:06;5.63;;;2.30;;
60468;SDS011;46316;47.582;10.238;2022-10-17T06:44:32;5.90;;;2.47;;
60468;SDS011;46316;47.582;10.238;2022-10-17T06:46:58;2.55;;;2.28;;
60468;SDS011;46316;47.582;10.238;2022-10-17T06:49:25;6.55;;;2.13;;
60468;SDS011;46316;47.582;10.238;2022-10-17T06:51:51;4.28;;;2.20;;
60468;SDS011;46316;47.582;10.238;2022-10-17T06:54:17;4.28;;;2.60;;
60468;SDS011;46316;47.582;10.238;2022-10-17T06:56:43;3.05;;;2.67;;
60468;SDS011;46316;47.582;10.238;2022-10-17T06:59:09;3.08;;;2.15;;
60468;SDS011;46316;47.582;10.238;2022-10-17T07:01:34;2.53;;;1.95;;
60468;SDS011;46316;47.582;10.238;2022-10-17T07:04:00;2.60;;;2.38;;
60468;SDS011;46316;47.582;10.238;2022-10-17T07:06:26;2.70;;;1.85;;
60468;SDS011;46316;47.582;10.238;2022-10-17T07:08:51;2.55;;;1.92;;
60468;SDS011;46316;47.582;10.238;2022-10-17T07:11:20;3.40;;;2.13;;
60468;SDS011;46316;47.582;10.238;2022-10-17T07:13:46;3.80;;;2.10;;
60468;SDS011;46316;47.582;10.238;2022-10-17T07:16:12;3.13;;;1.95;;
60468;SDS011;46316;47.582;10.238;2022-10-17T07:18:39;2.55;;;2.03;;
60468;SDS011;46316;47.582;10.238;2022-10-17T07:21:05;2.53;;;2.08;;
60468;SDS011;46316;47.582;10.238;2022-10-17T07:23:32;2.78;;;1.83;;
60468;SDS011;46316;47.582;10.238;2022-10-17T07:26:01;2.83;;;1.83;;
60468;SDS011;46316;47.582;10.238;2022-10-17T07:28:32;1.80;;;1.60;;
60468;SDS011;46316;47.582;10.238;2022-10-17T07:33:29;2.30;;;1.42;;
60468;SDS011;46316;47.582;10.238;2022-10-17T07:35:57;3.47;;;1.40;;
60468;SDS011;46316;47.582;10.238;2022-10-17T07:38:24;3.25;;;2.13;;
60468;SDS011;46316;47.582;10.238;2022-10-17T07:40:56;3.75;;;1.90;;
60468;SDS011;46316;47.582;10.238;2022-10-17T07:43:24;1.75;;;1.65;;
60468;SDS011;46316;47.582;10.238;2022-10-17T07:45:51;2.75;;;1.80;;
60468;SDS011;46316;47.582;10.238;2022-10-17T07:48:38;1.85;;;1.70;;
60468;SDS011;46316;47.582;10.238;2022-10-17T07:51:15;1.50;;;1.40;;
60468;SDS011;46316;47.582;10.238;2022-10-17T07:53:42;3.83;;;1.63;;
60468;SDS011;46316;47.582;10.238;2022-10-17T07:56:08;2.60;;;1.58;;
60468;SDS011;46316;47.582;10.238;2022-10-17T07:58:35;6.63;;;1.90;;
60468;SDS011;46316;47.582;10.238;2022-10-17T08:01:02;2.33;;;1.70;;
60468;SDS011;46316;47.582;10.238;2022-10-17T08:03:29;4.78;;;1.52;;
60468;SDS011;46316;47.582;10.238;2022-10-17T08:05:58;3.78;;;1.65;;
60468;SDS011;46316;47.582;10.238;2022-10-17T08:08:25;2.53;;;1.70;;
60468;SDS011;46316;47.582;10.238;2022-10-17T08:14:12;1.73;;;1.42;;
60468;SDS011;46316;47.582;10.238;2022-10-17T08:16:42;3.30;;;1.85;;
60468;SDS011;46316;47.582;10.238;2022-10-17T08:19:08;3.00;;;1.67;;
60468;SDS011;46316;47.582;10.238;2022-10-17T08:21:38;2.00;;;1.52;;
60468;SDS011;46316;47.582;10.238;2022-10-17T08:24:15;2.03;;;1.50;;
60468;SDS011;46316;47.582;10.238;2022-10-17T08:26:41;3.15;;;1.40;;
60468;SDS011;46316;47.582;10.238;2022-10-17T08:29:13;3.97;;;1.88;;
60468;SDS011;46316;47.582;10.238;2022-10-17T08:31:45;3.78;;;1.48;;
60468;SDS011;46316;47.582;10.238;2022-10-17T08:34:11;1.60;;;1.40;;
60468;SDS011;46316;47.582;10.238;2022-10-17T08:36:37;3.88;;;1.70;;
60468;SDS011;46316;47.582;10.238;2022-10-17T08:39:02;4.40;;;1.50;;
60468;SDS011;46316;47.582;10.238;2022-10-17T08:44:50;6.53;;;2.13;;
60468;SDS011;46316;47.582;10.238;2022-10-17T08:47:27;3.05;;;1.80;;
60468;SDS011;46316;47.582;10.238;2022-10-17T08:50:00;2.85;;;1.60;;
60468;SDS011;46316;47.582;10.238;2022-10-17T08:55:28;3.60;;;1.60;;
60468;SDS011;46316;47.582;10.238;2022-10-17T08:58:23;2.85;;;2.03;;
60468;SDS011;46316;47.582;10.238;2022-10-17T09:01:40;3.38;;;1.70;;
60468;SDS011;46316;47.582;10.238;2022-10-17T09:09:31;6.80;;;2.10;;
60468;SDS011;46316;47.582;10.238;2022-10-17T09:12:19;8.75;;;2.45;;
60468;SDS011;46316;47.582;10.238;2022-10-17T09:17:57;3.00;;;2.00;;
60468;SDS011;46316;47.582;10.238;2022-10-17T09:20:35;2.30;;;1.85;;
60468;SDS011;46316;47.582;10.238;2022-10-17T09:26:00;2.97;;;1.63;;
60468;SDS011;46316;47.582;10.238;2022-10-17T09:28:37;4.25;;;1.60;;
60468;SDS011;46316;47.582;10.238;2022-10-17T09:33:39;3.83;;;2.75;;
60468;SDS011;46316;47.582;10.238;2022-10-17T09:36:12;3.80;;;1.80;;
60468;SDS011;46316;47.582;10.238;2022-10-17T09:38:44;4.32;;;1.30;;
60468;SDS011;46316;47.582;10.238;2022-10-17T09:41:15;2.70;;;1.30;;
60468;SDS011;46316;47.582;10.238;2022-10-17T09:43:46;1.25;;;1.13;;
60468;SDS011;46316;47.582;10.238;2022-10-17T09:46:17;4.88;;;1.90;;
60468;SDS011;46316;47.582;10.238;2022-10-17T09:49:13;2.40;;;1.50;;
60468;SDS011;46316;47.582;10.238;2022-10-17T09:51:43;2.30;;;1.70;;
60468;SDS011;46316;47.582;10.238;2022-10-17T09:54:22;2.17;;;1.27;;
60468;SDS011;46316;47.582;10.238;2022-10-17T09:57:00;3.28;;;1.60;;
60468;SDS011;46316;47.582;10.238;2022-10-17T09:59:29;3.65;;;1.40;;
60468;SDS011;46316;47.582;10.238;2022-10-17T10:02:14;4.60;;;1.73;;
60468;SDS011;46316;47.582;10.238;2022-10-17T10:07:17;2.30;;;1.70;;
60468;SDS011;46316;47.582;10.238;2022-10-17T10:09:45;2.30;;;1.83;;
60468;SDS011;46316;47.582;10.238;2022-10-17T10:12:20;4.22;;;1.52;;
60468;SDS011;46316;47.582;10.238;2022-10-17T10:14:47;1.77;;;1.38;;
60468;SDS011;46316;47.582;10.238;2022-10-17T10:25:55;1.42;;;1.33;;
60468;SDS011;46316;47.582;10.238;2022-10-17T10:28:30;2.15;;;1.27;;
60468;SDS011;46316;47.582;10.238;2022-10-17T10:30:58;2.17;;;1.30;;
60468;SDS011;46316;47.582;10.238;2022-10-17T10:33:29;3.38;;;1.60;;
60468;SDS011;46316;47.582;10.238;2022-10-17T10:36:00;5.22;;;1.30;;
60468;SDS011;46316;47.582;10.238;2022-10-17T10:38:28;1.45;;;1.02;;
60468;SDS011;46316;47.582;10.238;2022-10-17T10:41:08;2.65;;;1.38;;
60468;SDS011;46316;47.582;10.238;2022-10-17T10:46:16;1.20;;;1.10;;
60468;SDS011;46316;47.582;10.238;2022-10-17T10:48:55;2.22;;;1.30;;
60468;SDS011;46316;47.582;10.238;2022-10-17T10:54:07;1.55;;;1.00;;
60468;SDS011;46316;47.582;10.238;2022-10-17T10:56:37;0.85;;;0.85;;
60468;SDS011;46316;47.582;10.238;2022-10-17T10:59:09;2.88;;;1.15;;
60468;SDS011;46316;47.582;10.238;2022-10-17T11:07:38;3.78;;;1.10;;
60468;SDS011;46316;47.582;10.238;2022-10-17T11:16:36;1.45;;;1.35;;
60468;SDS011;46316;47.582;10.238;2022-10-17T11:28:20;1.42;;;1.30;;
60468;SDS011;46316;47.582;10.238;2022-10-17T11:30:53;1.25;;;1.10;;
60468;SDS011;46316;47.582;10.238;2022-10-17T11:33:27;1.27;;;1.17;;
60468;SDS011;46316;47.582;10.238;2022-10-17T11:36:18;2.42;;;1.35;;
60468;SDS011;46316;47.582;10.238;2022-10-17T11:38:57;1.35;;;1.25;;
60468;SDS011;46316;47.582;10.238;2022-10-17T11:46:59;5.38;;;1.80;;
60468;SDS011;46316;47.582;10.238;2022-10-17T11:52:18;3.55;;;1.52;;
60468;SDS011;46316;47.582;10.238;2022-10-17T11:55:00;2.47;;;1.30;;
60468;SDS011;46316;47.582;10.238;2022-10-17T11:57:44;2.28;;;1.23;;
60468;SDS011;46316;47.582;10.238;2022-10-17T12:09:15;1.45;;;1.10;;
60468;SDS011;46316;47.582;10.238;2022-10-17T12:11:50;2.00;;;1.00;;
60468;SDS011;46316;47.582;10.238;2022-10-17T12:17:20;1.88;;;1.20;;
60468;SDS011;46316;47.582;10.238;2022-10-17T12:30:30;7.38;;;1.25;;
60468;SDS011;46316;47.582;10.238;2022-10-17T12:32:58;2.20;;;1.10;;
60468;SDS011;46316;47.582;10.238;2022-10-17T12:35:25;1.08;;;1.00;;
60468;SDS011;46316;47.582;10.238;2022-10-17T12:48:11;2.47;;;1.23;;
60468;SDS011;46316;47.582;10.238;2022-10-17T12:53:40;1.45;;;1.20;;
60468;SDS011;46316;47.582;10.238;2022-10-17T12:56:07;4.43;;;1.20;;
60468;SDS011;46316;47.582;10.238;2022-10-17T12:58:34;3.83;;;1.48;;
60468;SDS011;46316;47.582;10.238;2022-10-17T13:01:00;1.42;;;1.30;;
60468;SDS011;46316;47.582;10.238;2022-10-17T13:03:30;1.67;;;1.40;;
60468;SDS011;46316;47.582;10.238;2022-10-17T13:05:59;1.17;;;1.08;;
60468;SDS011;46316;47.582;10.238;2022-10-17T13:08:34;3.10;;;1.25;;
60468;SDS011;46316;47.582;10.238;2022-10-17T13:11:04;2.58;;;1.30;;
60468;SDS011;46316;47.582;10.238;2022-10-17T13:16:06;1.08;;;0.95;;
60468;SDS011;46316;47.582;10.238;2022-10-17T13:18:32;3.47;;;1.08;;
60468;SDS011;46316;47.582;10.238;2022-10-17T13:21:05;3.15;;;1.40;;
60468;SDS011;46316;47.582;10.238;2022-10-17T13:23:40;1.48;;;1.05;;
60468;SDS011;46316;47.582;10.238;2022-10-17T13:28:31;1.88;;;1.17;;
60468;SDS011;46316;47.582;10.238;2022-10-17T13:30:57;2.45;;;1.38;;
60468;SDS011;46316;47.582;10.238;2022-10-17T13:33:27;1.60;;;1.30;;
60468;SDS011;46316;47.582;10.238;2022-10-17T13:36:03;2.03;;;1.30;;
60468;SDS011;46316;47.582;10.238;2022-10-17T13:38:32;2.30;;;1.20;;
60468;SDS011;46316;47.582;10.238;2022-10-17T13:40:59;1.60;;;1.50;;
60468;SDS011;46316;47.582;10.238;2022-10-17T13:43:27;2.25;;;1.30;;
60468;SDS011;46316;47.582;10.238;2022-10-17T13:45:56;1.73;;;1.20;;
60468;SDS011;46316;47.582;10.238;2022-10-17T13:48:29;1.58;;;1.30;;
60468;SDS011;46316;47.582;10.238;2022-10-17T13:50:58;2.80;;;1.50;;
60468;SDS011;46316;47.582;10.238;2022-10-17T13:53:34;2.50;;;1.48;;
60468;SDS011;46316;47.582;10.238;2022-10-17T13:58:48;1.35;;;1.20;;
60468;SDS011;46316;47.582;10.238;2022-10-17T14:01:21;3.75;;;1.60;;
60468;SDS011;46316;47.582;10.238;2022-10-17T14:03:48;1.83;;;1.52;;
60468;SDS011;46316;47.582;10.238;2022-10-17T14:06:24;3.28;;;1.65;;
60468;SDS011;46316;47.582;10.238;2022-10-17T14:11:41;1.70;;;1.50;;
60468;SDS011;46316;47.582;10.238;2022-10-17T14:14:19;2.75;;;1.50;;
60468;SDS011;46316;47.582;10.238;2022-10-17T14:16:47;1.67;;;1.45;;
60468;SDS011;46316;47.582;10.238;2022-10-17T14:22:16;3.17;;;1.70;;
60468;SDS011;46316;47.582;10.238;2022-10-17T14:24:42;2.90;;;1.40;;
60468;SDS011;46316;47.582;10.238;2022-10-17T14:27:24;1.52;;;1.42;;
60468;SDS011;46316;47.582;10.238;2022-10-17T14:29:53;2.15;;;1.20;;
60468;SDS011;46316;47.582;10.238;2022-10-17T14:32:24;1.48;;;1.38;;
60468;SDS011;46316;47.582;10.238;2022-10-17T14:34:52;6.20;;;1.58;;
60468;SDS011;46316;47.582;10.238;2022-10-17T14:40:13;1.70;;;1.58;;
60468;SDS011;46316;47.582;10.238;2022-10-17T14:42:44;3.30;;;1.80;;
60468;SDS011;46316;47.582;10.238;2022-10-17T14:45:16;1.98;;;1.80;;
60468;SDS011;46316;47.582;10.238;2022-10-17T14:47:49;3.70;;;2.30;;
60468;SDS011;46316;47.582;10.238;2022-10-17T14:53:00;2.75;;;1.98;;
60468;SDS011;46316;47.582;10.238;2022-10-17T14:55:31;2.15;;;1.85;;
60468;SDS011;46316;47.582;10.238;2022-10-17T14:57:59;5.15;;;2.22;;
60468;SDS011;46316;47.582;10.238;2022-10-17T15:00:26;3.47;;;2.05;;
60468;SDS011;46316;47.582;10.238;2022-10-17T15:02:52;3.20;;;2.00;;
60468;SDS011;46316;47.582;10.238;2022-10-17T15:05:19;6.60;;;2.42;;
60468;SDS011;46316;47.582;10.238;2022-10-17T15:07:47;5.13;;;2.30;;
60468;SDS011;46316;47.582;10.238;2022-10-17T15:10:46;2.67;;;2.15;;
60468;SDS011;46316;47.582;10.238;2022-10-17T15:13:06;4.03;;;2.00;;
60468;SDS011;46316;47.582;10.238;2022-10-17T15:15:32;7.35;;;2.38;;
60468;SDS011;46316;47.582;10.238;2022-10-17T15:17:58;1.98;;;1.75;;
60468;SDS011;46316;47.582;10.238;2022-10-17T15:20:24;2.97;;;1.90;;
60468;SDS011;46316;47.582;10.238;2022-10-17T15:22:55;3.42;;;2.03;;
60468;SDS011;46316;47.582;10.238;2022-10-17T15:25:22;3.13;;;1.83;;
60468;SDS011;46316;47.582;10.238;2022-10-17T15:27:49;4.47;;;2.15;;
60468;SDS011;46316;47.582;10.238;2022-10-17T15:30:17;2.90;;;2.10;;
60468;SDS011;46316;47.582;10.238;2022-10-17T15:32:45;4.13;;;2.10;;
60468;SDS011;46316;47.582;10.238;2022-10-17T15:35:11;3.53;;;2.17;;
60468;SDS011;46316;47.582;10.238;2022-10-17T15:37:37;4.05;;;2.42;;
60468;SDS011;46316;47.582;10.238;2022-10-17T15:40:03;4.25;;;2.22;;
60468;SDS011;46316;47.582;10.238;2022-10-17T15:42:30;6.13;;;2.58;;
60468;SDS011;46316;47.582;10.238;2022-10-17T15:44:56;8.02;;;2.33;;
60468;SDS011;46316;47.582;10.238;2022-10-17T15:49:49;2.40;;;2.00;;
60468;SDS011;46316;47.582;10.238;2022-10-17T15:52:15;2.53;;;1.92;;
60468;SDS011;46316;47.582;10.238;2022-10-17T15:54:40;6.72;;;2.35;;
60468;SDS011;46316;47.582;10.238;2022-10-17T15:57:07;3.03;;;1.85;;
60468;SDS011;46316;47.582;10.238;2022-10-17T15:59:44;5.07;;;1.90;;
60468;SDS011;46316;47.582;10.238;2022-10-17T16:02:14;2.83;;;1.98;;
60468;SDS011;46316;47.582;10.238;2022-10-17T16:04:41;5.65;;;2.00;;
60468;SDS011;46316;47.582;10.238;2022-10-17T16:07:07;5.07;;;2.53;;
60468;SDS011;46316;47.582;10.238;2022-10-17T16:09:33;3.95;;;2.05;;
60468;SDS011;46316;47.582;10.238;2022-10-17T16:12:01;4.72;;;2.30;;
60468;SDS011;46316;47.582;10.238;2022-10-17T16:14:27;8.07;;;2.10;;
60468;SDS011;46316;47.582;10.238;2022-10-17T16:16:53;2.20;;;2.00;;
60468;SDS011;46316;47.582;10.238;2022-10-17T16:19:18;4.88;;;2.55;;
60468;SDS011;46316;47.582;10.238;2022-10-17T16:21:44;2.50;;;2.30;;
60468;SDS011;46316;47.582;10.238;2022-10-17T16:24:10;4.00;;;2.67;;
60468;SDS011;46316;47.582;10.238;2022-10-17T16:26:37;6.30;;;3.45;;
60468;SDS011;46316;47.582;10.238;2022-10-17T16:29:03;3.33;;;3.03;;
60468;SDS011;46316;47.582;10.238;2022-10-17T16:31:30;5.43;;;3.03;;
60468;SDS011;46316;47.582;10.238;2022-10-17T16:33:59;3.60;;;2.58;;
60468;SDS011;46316;47.582;10.238;2022-10-17T16:36:25;6.68;;;2.50;;
60468;SDS011;46316;47.582;10.238;2022-10-17T16:38:51;3.13;;;2.28;;
60468;SDS011;46316;47.582;10.238;2022-10-17T16:41:24;4.88;;;2.35;;
60468;SDS011;46316;47.582;10.238;2022-10-17T16:43:53;4.40;;;2.50;;
60468;SDS011;46316;47.582;10.238;2022-10-17T16:46:20;6.72;;;2.55;;
60468;SDS011;46316;47.582;10.238;2022-10-17T16:48:46;6.35;;;2.70;;
60468;SDS011;46316;47.582;10.238;2022-10-17T16:51:13;3.70;;;2.53;;
60468;SDS011;46316;47.582;10.238;2022-10-17T16:53:39;4.38;;;2.72;;
60468;SDS011;46316;47.582;10.238;2022-10-17T16:56:15;4.47;;;2.67;;
60468;SDS011;46316;47.582;10.238;2022-10-17T16:58:43;6.15;;;3.30;;
60468;SDS011;46316;47.582;10.238;2022-10-17T17:01:13;4.18;;;2.47;;
60468;SDS011;46316;47.582;10.238;2022-10-17T17:03:41;4.85;;;3.28;;
60468;SDS011;46316;47.582;10.238;2022-10-17T17:06:10;5.50;;;2.75;;
60468;SDS011;46316;47.582;10.238;2022-10-17T17:08:41;4.38;;;2.80;;
60468;SDS011;46316;47.582;10.238;2022-10-17T17:11:07;8.30;;;2.60;;
60468;SDS011;46316;47.582;10.238;2022-10-17T17:13:34;3.42;;;2.88;;
60468;SDS011;46316;47.582;10.238;2022-10-17T17:16:01;2.95;;;2.45;;
60468;SDS011;46316;47.582;10.238;2022-10-17T17:18:47;5.38;;;2.92;;
60468;SDS011;46316;47.582;10.238;2022-10-17T17:23:42;5.57;;;3.70;;
60468;SDS011;46316;47.582;10.238;2022-10-17T17:26:09;5.45;;;3.58;;
60468;SDS011;46316;47.582;10.238;2022-10-17T17:28:43;4.78;;;3.22;;
60468;SDS011;46316;47.582;10.238;2022-10-17T17:31:10;5.75;;;3.10;;
60468;SDS011;46316;47.582;10.238;2022-10-17T17:33:37;6.68;;;3.35;;
60468;SDS011;46316;47.582;10.238;2022-10-17T17:36:04;5.75;;;3.95;;